Accueil
METAR-TAF:

METAR-TAF

Aéroports :

Aéroport de Bologne-Borgo Panigale

Bologne, Italie

latitude: 44-32N, longitude: 011-18E, altitude: 36 m

Observation

Le bulletin a été fait il y a 19 minutes, à 09:50 UTC
Vent 11 kt de est/sud-est
Température 22°C
Humidité 38%
Pression 1030 hPa
Visibilité 10 km ou plus
Quelques nuages à une hauteur de 5000 ft

METAR: LIPE 270950Z 12011KT 9999 FEW050 22/07 Q1030

Heure: 12:09 (10:09 UTC)

Prévision

Le bulletin a été fait il y a 5 heures et 9 minutes, à 05:00 UTC
Prévision valable du 27 à 06 UTC au 28 à 06 UTC
Vent 5 kt de direction variable
Visibilité 10 km ou plus
pas de nuages en-dessous de 1500 mètres et pas de cumulonimbus.
Evoluant progressivement
du 27 à 09 UTC au 27 à 11 UTC
Vent 10 kt de est
Evoluant progressivement
du 27 à 17 UTC au 27 à 19 UTC
Vent 5 kt de direction variable

TAF: LIPE 270500Z 2706/2806 VRB05KT CAVOK BECMG 2709/2711 10010KT BECMG 2717/2719 VRB05KT

Observations et prévisions météorologiques de plus de 4000 aéroports (messages METAR et TAF).

Les stations disponibles sont représentées par des disques jaunes et rouges sur la carte.

Passer la souris dessus pour voir le nom de la station.

Cliquer dessus pour voir les observations et prévisions météorologiques.

Pour changer de carte: cliquez sur les boutons verts avec une croix noire pour zoomer, sur le bouton vert avec un tiret pour effectuer un zoom arrière, ou sur les flèches vertes pour les cartes adjacentes.


METAR-TAF: